createdAt,value
2018-04-29T00:00:07.130Z,0.00
2018-04-29T00:01:07.095Z,0.00
2018-04-29T00:02:07.044Z,0.00
2018-04-29T00:03:07.001Z,0.00
2018-04-29T00:04:06.957Z,0.00
2018-04-29T00:05:06.914Z,0.00
2018-04-29T00:06:06.872Z,0.00
2018-04-29T00:07:06.828Z,0.00
2018-04-29T00:08:06.786Z,0.00
2018-04-29T00:09:06.741Z,0.00
2018-04-29T00:10:06.698Z,0.00
2018-04-29T00:11:06.656Z,0.00
2018-04-29T00:12:06.612Z,0.00
2018-04-29T00:13:06.570Z,0.00
2018-04-29T00:14:06.526Z,0.00
2018-04-29T00:15:06.483Z,0.00
2018-04-29T00:16:06.446Z,0.00
2018-04-29T00:17:06.401Z,0.00
2018-04-29T00:18:06.353Z,0.00
2018-04-29T00:19:06.310Z,0.00
2018-04-29T00:20:06.266Z,0.00
2018-04-29T00:21:06.223Z,0.00
2018-04-29T00:22:06.180Z,0.00
2018-04-29T00:23:06.138Z,0.00
2018-04-29T00:24:06.101Z,0.00
2018-04-29T00:25:06.050Z,0.00
2018-04-29T00:26:06.008Z,0.00
2018-04-29T00:27:06.016Z,0.00
2018-04-29T00:28:05.920Z,0.00
2018-04-29T00:29:05.877Z,0.00
2018-04-29T00:30:05.843Z,0.00
2018-04-29T00:31:05.792Z,0.00
2018-04-29T00:32:05.747Z,0.00
2018-04-29T00:33:05.705Z,0.00
2018-04-29T00:34:05.675Z,0.00
2018-04-29T00:35:05.619Z,0.00
2018-04-29T00:36:05.576Z,0.00
2018-04-29T00:37:05.532Z,0.00
2018-04-29T00:38:05.489Z,0.00
2018-04-29T00:39:05.446Z,0.00
2018-04-29T00:40:05.409Z,0.00
2018-04-29T00:41:05.358Z,0.00
2018-04-29T00:42:05.315Z,0.00
2018-04-29T00:43:05.274Z,0.00
2018-04-29T00:44:05.229Z,0.00
2018-04-29T00:45:05.194Z,0.00
2018-04-29T00:46:05.143Z,0.00
2018-04-29T00:47:05.100Z,0.00
2018-04-29T00:48:05.059Z,0.00
2018-04-29T00:49:05.016Z,0.00
2018-04-29T00:50:04.970Z,0.00
2018-04-29T00:51:04.927Z,0.00
2018-04-29T00:52:04.883Z,0.00
2018-04-29T00:53:04.839Z,0.00
2018-04-29T00:54:04.797Z,0.00
2018-04-29T00:55:04.754Z,0.00
2018-04-29T00:56:04.715Z,0.00
2018-04-29T00:57:04.667Z,0.00
2018-04-29T00:58:04.624Z,0.00
2018-04-29T00:59:04.623Z,0.00
2018-04-29T01:00:04.537Z,0.00
2018-04-29T01:01:04.494Z,0.00
2018-04-29T01:02:04.454Z,0.00
2018-04-29T01:03:04.408Z,0.00
2018-04-29T01:04:04.365Z,0.00
2018-04-29T01:05:04.321Z,0.00
2018-04-29T01:06:04.380Z,0.00
2018-04-29T01:07:04.234Z,0.00
2018-04-29T01:08:04.190Z,0.00
2018-04-29T01:09:04.147Z,0.00
2018-04-29T01:10:04.105Z,0.00
2018-04-29T01:11:04.061Z,0.00
2018-04-29T01:12:04.016Z,0.00
2018-04-29T01:13:03.973Z,0.00
2018-04-29T01:14:03.930Z,0.00
2018-04-29T01:15:03.887Z,0.00
2018-04-29T01:16:03.842Z,0.00
2018-04-29T01:17:03.799Z,0.00
2018-04-29T01:18:03.756Z,0.00
2018-04-29T01:19:03.714Z,0.00
2018-04-29T01:20:03.668Z,0.00
2018-04-29T01:21:03.625Z,0.00
2018-04-29T01:22:03.586Z,0.00
2018-04-29T01:23:03.540Z,0.00
2018-04-29T01:24:03.494Z,0.00
2018-04-29T01:25:03.451Z,0.00
2018-04-29T01:26:03.407Z,0.00
2018-04-29T01:27:03.364Z,0.00
2018-04-29T01:28:03.320Z,0.00
2018-04-29T01:29:03.276Z,0.00
2018-04-29T01:30:03.236Z,0.00
2018-04-29T01:31:03.190Z,0.00
2018-04-29T01:32:03.145Z,0.00
2018-04-29T01:33:03.103Z,0.00
2018-04-29T01:34:03.059Z,0.00
2018-04-29T01:35:03.024Z,0.00
2018-04-29T01:36:02.971Z,0.00
2018-04-29T01:37:02.928Z,0.00
2018-04-29T01:38:02.885Z,0.00
2018-04-29T01:39:02.841Z,0.00
2018-04-29T01:40:02.799Z,0.00
2018-04-29T01:41:02.754Z,0.00
2018-04-29T01:42:02.711Z,0.00
2018-04-29T01:43:02.668Z,0.00
2018-04-29T01:44:02.623Z,0.00
2018-04-29T01:45:02.580Z,0.00
2018-04-29T01:46:02.537Z,0.00
2018-04-29T01:47:02.494Z,0.00
2018-04-29T01:48:02.449Z,0.00
2018-04-29T01:49:02.406Z,0.00
2018-04-29T01:50:02.363Z,0.00
2018-04-29T01:51:02.319Z,0.00
2018-04-29T01:52:02.275Z,0.00
2018-04-29T01:53:02.232Z,0.00
2018-04-29T01:54:02.193Z,0.00
2018-04-29T01:55:02.146Z,0.00
2018-04-29T01:56:02.110Z,0.00
2018-04-29T01:57:02.059Z,0.00
2018-04-29T01:58:02.015Z,0.00
2018-04-29T01:59:01.980Z,0.00
2018-04-29T02:00:01.928Z,0.00
2018-04-29T02:01:01.885Z,0.00
2018-04-29T02:02:01.841Z,0.00
2018-04-29T02:03:01.798Z,0.00
2018-04-29T02:04:01.754Z,0.00
2018-04-29T02:05:01.710Z,0.00
2018-04-29T02:06:01.667Z,0.00
2018-04-29T02:07:01.624Z,0.00
2018-04-29T02:08:01.579Z,0.00
2018-04-29T02:09:01.542Z,0.00
2018-04-29T02:10:01.494Z,0.00
2018-04-29T02:11:01.452Z,0.00
2018-04-29T02:12:01.406Z,0.00
2018-04-29T02:13:01.365Z,0.00
2018-04-29T02:14:01.319Z,0.00
2018-04-29T02:15:01.276Z,0.00
2018-04-29T02:16:01.232Z,0.00
2018-04-29T02:17:01.189Z,0.00
2018-04-29T02:18:01.145Z,0.00
2018-04-29T02:19:01.102Z,0.00
2018-04-29T02:20:01.057Z,0.00
2018-04-29T02:21:01.014Z,0.00
2018-04-29T02:22:00.971Z,0.00
2018-04-29T02:23:00.927Z,0.00
2018-04-29T02:24:00.883Z,0.00
2018-04-29T02:25:00.840Z,0.00
2018-04-29T02:26:00.802Z,0.00
2018-04-29T02:27:00.753Z,0.00
2018-04-29T02:28:00.708Z,0.00
2018-04-29T02:29:00.665Z,0.00
2018-04-29T02:30:00.628Z,0.00
2018-04-29T02:31:00.578Z,0.00
2018-04-29T02:32:00.539Z,0.00
2018-04-29T02:33:00.490Z,0.00
2018-04-29T02:34:00.446Z,0.00
2018-04-29T02:35:00.402Z,0.00
2018-04-29T02:36:00.358Z,0.00
2018-04-29T02:37:00.315Z,0.00
2018-04-29T02:38:00.272Z,0.00
2018-04-29T02:39:00.228Z,0.00
2018-04-29T02:40:00.183Z,0.00
2018-04-29T02:41:00.143Z,0.00
2018-04-29T02:42:00.096Z,0.00
2018-04-29T02:43:00.052Z,0.00
2018-04-29T02:44:00.012Z,0.00
2018-04-29T02:44:59.964Z,0.00
2018-04-29T02:45:59.921Z,0.00
2018-04-29T02:46:59.876Z,0.00
2018-04-29T02:47:59.831Z,0.00
2018-04-29T02:48:59.788Z,0.00
2018-04-29T02:49:59.744Z,0.00
2018-04-29T02:50:59.700Z,0.00
2018-04-29T02:51:59.656Z,0.00
2018-04-29T02:52:59.612Z,0.00
2018-04-29T02:53:59.568Z,0.00
2018-04-29T02:54:59.524Z,0.00
2018-04-29T02:55:59.480Z,0.00
2018-04-29T02:56:59.436Z,0.00
2018-04-29T02:57:59.395Z,0.00
2018-04-29T02:58:59.348Z,0.00
2018-04-29T02:59:59.303Z,0.00
2018-04-29T03:00:59.260Z,0.00
2018-04-29T03:01:59.219Z,0.00
2018-04-29T03:02:59.173Z,0.00
2018-04-29T03:03:59.128Z,0.00
2018-04-29T03:04:59.084Z,0.00
2018-04-29T03:05:59.040Z,0.00
2018-04-29T03:06:58.997Z,0.00
2018-04-29T03:07:58.951Z,0.00
2018-04-29T03:08:58.907Z,0.00
2018-04-29T03:09:58.864Z,0.00
2018-04-29T03:10:58.831Z,0.00
2018-04-29T03:11:58.775Z,4.00
2018-04-29T03:12:58.732Z,0.00
2018-04-29T03:13:58.688Z,4.00
2018-04-29T03:14:58.644Z,0.00
2018-04-29T03:15:58.599Z,4.00
2018-04-29T03:16:58.555Z,4.00
2018-04-29T03:17:58.512Z,4.00
2018-04-29T03:18:58.468Z,8.00
2018-04-29T03:19:58.422Z,12.00
2018-04-29T03:20:58.379Z,12.00
2018-04-29T03:21:58.385Z,12.00
2018-04-29T03:22:58.291Z,16.00
2018-04-29T03:23:58.251Z,16.00
2018-04-29T03:24:58.202Z,20.00
2018-04-29T03:25:58.159Z,20.00
2018-04-29T03:26:58.115Z,24.00
2018-04-29T03:27:58.070Z,24.00
2018-04-29T03:28:58.026Z,32.00
2018-04-29T03:29:57.983Z,32.00
2018-04-29T03:30:57.938Z,36.00
2018-04-29T03:31:57.893Z,40.00
2018-04-29T03:32:57.849Z,44.00
2018-04-29T03:33:57.805Z,48.00
2018-04-29T03:34:57.761Z,52.00
2018-04-29T03:35:57.717Z,52.00
2018-04-29T03:36:57.673Z,56.00
2018-04-29T03:37:57.629Z,64.00
2018-04-29T03:38:57.590Z,72.00
2018-04-29T03:39:57.539Z,76.00
2018-04-29T03:40:57.495Z,80.00
2018-04-29T03:41:57.452Z,88.00
2018-04-29T03:42:57.412Z,96.00
2018-04-29T03:43:57.362Z,104.00
2018-04-29T03:44:57.318Z,112.00
2018-04-29T03:45:57.274Z,120.00
2018-04-29T03:46:57.229Z,132.00
2018-04-29T03:47:57.198Z,144.00
2018-04-29T03:48:57.142Z,152.00
2018-04-29T03:49:57.096Z,160.00
2018-04-29T03:50:57.055Z,172.00
2018-04-29T03:51:57.010Z,184.00
2018-04-29T03:52:57.015Z,200.00
2018-04-29T03:53:56.919Z,212.00
2018-04-29T03:54:56.875Z,228.00
2018-04-29T03:55:56.958Z,244.00
2018-04-29T03:56:56.785Z,264.00
2018-04-29T03:57:56.746Z,280.00
2018-04-29T03:58:56.698Z,296.00
2018-04-29T03:59:56.652Z,312.00
2018-04-29T04:00:56.608Z,332.00
2018-04-29T04:01:56.564Z,348.00
2018-04-29T04:02:56.519Z,372.00
2018-04-29T04:03:56.474Z,404.00
2018-04-29T04:04:56.431Z,436.00
2018-04-29T04:05:56.386Z,476.00
2018-04-29T04:06:56.342Z,516.00
2018-04-29T04:07:56.296Z,556.00
2018-04-29T04:08:56.259Z,596.00
2018-04-29T04:09:56.208Z,644.00
2018-04-29T04:10:56.164Z,692.00
2018-04-29T04:11:56.120Z,732.00
2018-04-29T04:12:56.075Z,772.00
2018-04-29T04:13:56.032Z,800.00
2018-04-29T04:14:55.987Z,824.00
2018-04-29T04:15:55.942Z,840.00
2018-04-29T04:16:55.898Z,852.00
2018-04-29T04:17:55.854Z,864.00
2018-04-29T04:18:55.814Z,872.00
2018-04-29T04:19:55.765Z,876.00
2018-04-29T04:20:55.720Z,888.00
2018-04-29T04:21:55.677Z,892.00
2018-04-29T04:22:55.633Z,900.00
2018-04-29T04:23:55.593Z,904.00
2018-04-29T04:24:55.543Z,904.00
2018-04-29T04:25:55.500Z,900.00
2018-04-29T04:26:55.456Z,896.00
2018-04-29T04:27:55.411Z,888.00
2018-04-29T04:28:55.369Z,880.00
2018-04-29T04:29:55.324Z,872.00
2018-04-29T04:30:55.283Z,872.00
2018-04-29T04:31:55.234Z,876.00
2018-04-29T04:32:55.191Z,884.00
2018-04-29T04:33:55.147Z,896.00
2018-04-29T04:34:55.104Z,912.00
2018-04-29T04:35:55.058Z,940.00
2018-04-29T04:36:55.020Z,968.00
2018-04-29T04:37:54.971Z,996.00
2018-04-29T04:38:54.927Z,1036.00
2018-04-29T04:39:54.883Z,1080.00
2018-04-29T04:40:54.839Z,1128.00
2018-04-29T04:41:54.796Z,1180.00
2018-04-29T04:42:54.752Z,1236.00
2018-04-29T04:43:54.710Z,1288.00
2018-04-29T04:44:54.663Z,1340.00
2018-04-29T04:45:54.619Z,1404.00
2018-04-29T04:46:54.576Z,1476.00
2018-04-29T04:47:54.531Z,1544.00
2018-04-29T04:48:54.488Z,1616.00
2018-04-29T04:49:54.444Z,1688.00
2018-04-29T04:50:54.400Z,1752.00
2018-04-29T04:51:54.355Z,1792.00
2018-04-29T04:52:54.314Z,1804.00
2018-04-29T04:53:54.272Z,1796.00
2018-04-29T04:54:54.231Z,1800.00
2018-04-29T04:55:54.181Z,1816.00
2018-04-29T04:56:54.137Z,1844.00
2018-04-29T04:57:54.093Z,1864.00
2018-04-29T04:58:54.050Z,1888.00
2018-04-29T04:59:54.005Z,1916.00
2018-04-29T05:00:53.962Z,1936.00
2018-04-29T05:01:53.919Z,1960.00
2018-04-29T05:02:53.875Z,1988.00
2018-04-29T05:03:53.832Z,1988.00
2018-04-29T05:04:53.787Z,2008.00
2018-04-29T05:05:53.744Z,2056.00
2018-04-29T05:06:53.701Z,2136.00
2018-04-29T05:07:53.656Z,2256.00
2018-04-29T05:08:53.619Z,2408.00
2018-04-29T05:09:53.569Z,2568.00
2018-04-29T05:10:53.526Z,2728.00
2018-04-29T05:11:53.481Z,2972.00
2018-04-29T05:12:53.438Z,3216.00
2018-04-29T05:13:53.394Z,3376.00
2018-04-29T05:14:53.357Z,3564.00
2018-04-29T05:15:53.307Z,3692.00
2018-04-29T05:16:53.264Z,3608.00
2018-04-29T05:17:53.220Z,3872.00
2018-04-29T05:18:53.179Z,4476.00
2018-04-29T05:19:53.133Z,4400.00
2018-04-29T05:20:53.091Z,5172.00
2018-04-29T05:21:53.046Z,5812.00
2018-04-29T05:22:53.003Z,7352.00
2018-04-29T05:23:52.960Z,10944.00
2018-04-29T05:24:52.917Z,15808.00
2018-04-29T05:25:52.873Z,17216.00
2018-04-29T05:26:52.831Z,18272.00
2018-04-29T05:27:52.787Z,19936.00
2018-04-29T05:28:52.745Z,19744.00
2018-04-29T05:29:52.703Z,20608.00
2018-04-29T05:30:52.664Z,20512.00
2018-04-29T05:31:52.669Z,19904.00
2018-04-29T05:32:52.577Z,20832.00
2018-04-29T05:33:52.536Z,20352.00
2018-04-29T05:34:52.497Z,21344.00
2018-04-29T05:35:52.455Z,18816.00
2018-04-29T05:36:52.419Z,19392.00
2018-04-29T05:37:52.377Z,15520.00
2018-04-29T05:38:52.336Z,16704.00
2018-04-29T05:39:52.299Z,17888.00
2018-04-29T05:40:52.258Z,21856.00
2018-04-29T05:41:52.220Z,17952.00
2018-04-29T05:42:52.182Z,20640.00
2018-04-29T05:43:52.145Z,19552.00
2018-04-29T05:44:52.106Z,20864.00
2018-04-29T05:45:52.069Z,23872.00
2018-04-29T05:46:52.031Z,24096.00
2018-04-29T05:47:51.994Z,21568.00
2018-04-29T05:48:51.964Z,23360.00
2018-04-29T05:49:51.923Z,25728.00
2018-04-29T05:50:51.885Z,25216.00
2018-04-29T05:51:51.849Z,25824.00
2018-04-29T05:52:51.813Z,26176.00
2018-04-29T05:53:51.778Z,20512.00
2018-04-29T05:54:51.743Z,25920.00
2018-04-29T05:55:51.707Z,26656.00
2018-04-29T05:56:51.675Z,27232.00
2018-04-29T05:57:51.641Z,27424.00
2018-04-29T05:58:51.603Z,27392.00
2018-04-29T05:59:51.567Z,26688.00
2018-04-29T06:00:51.533Z,25824.00
2018-04-29T06:01:51.500Z,24832.00
2018-04-29T06:02:51.466Z,26560.00
2018-04-29T06:03:51.431Z,24224.00
2018-04-29T06:04:51.398Z,20512.00
2018-04-29T06:05:51.364Z,19424.00
2018-04-29T06:06:51.581Z,23104.00
2018-04-29T06:07:51.297Z,24224.00
2018-04-29T06:08:51.263Z,22144.00
2018-04-29T06:09:51.236Z,22816.00
2018-04-29T06:10:51.197Z,22784.00
2018-04-29T06:11:51.162Z,20480.00
2018-04-29T06:12:51.129Z,22976.00
2018-04-29T06:13:51.096Z,17184.00
2018-04-29T06:14:51.063Z,17696.00
2018-04-29T06:15:51.029Z,16416.00
2018-04-29T06:16:50.996Z,16736.00
2018-04-29T06:17:50.968Z,19456.00
2018-04-29T06:18:50.930Z,22944.00
2018-04-29T06:19:50.895Z,27520.00
2018-04-29T06:20:50.862Z,26816.00
2018-04-29T06:21:50.829Z,28480.00
2018-04-29T06:22:50.796Z,29440.00
2018-04-29T06:23:50.761Z,30688.00
2018-04-29T06:24:50.728Z,31552.00
2018-04-29T06:25:50.696Z,31776.00
2018-04-29T06:26:50.666Z,29120.00
2018-04-29T06:27:50.629Z,30688.00
2018-04-29T06:28:50.597Z,31712.00
2018-04-29T06:29:50.564Z,34848.00
2018-04-29T06:30:50.531Z,36608.00
2018-04-29T06:31:50.563Z,36288.00
2018-04-29T06:32:50.466Z,31840.00
2018-04-29T06:33:50.434Z,21792.00
2018-04-29T06:34:50.403Z,11688.00
2018-04-29T06:35:50.370Z,33984.00
2018-04-29T06:36:50.339Z,17312.00
2018-04-29T06:37:50.307Z,11248.00
2018-04-29T06:38:50.321Z,16480.00
2018-04-29T06:39:50.243Z,13672.00
2018-04-29T06:40:50.212Z,27680.00
2018-04-29T06:41:50.180Z,26304.00
2018-04-29T06:42:50.147Z,17664.00
2018-04-29T06:43:50.115Z,18656.00
2018-04-29T06:44:50.082Z,20384.00
2018-04-29T06:45:50.053Z,23200.00
2018-04-29T06:46:50.057Z,30304.00
2018-04-29T06:47:49.984Z,33792.00
2018-04-29T06:48:49.955Z,27584.00
2018-04-29T06:49:49.921Z,10064.00
2018-04-29T06:50:49.886Z,9796.00
2018-04-29T06:51:49.852Z,11272.00
2018-04-29T06:52:49.819Z,13064.00
2018-04-29T06:53:49.786Z,38624.00
2018-04-29T06:54:49.754Z,35008.00
2018-04-29T06:55:49.719Z,39392.00
2018-04-29T06:56:49.690Z,37504.00
2018-04-29T06:57:49.653Z,32800.00
2018-04-29T06:58:49.620Z,28480.00
2018-04-29T06:59:49.588Z,15680.00
2018-04-29T07:00:49.632Z,9960.00
2018-04-29T07:01:49.522Z,14224.00
2018-04-29T07:02:49.490Z,7864.00
2018-04-29T07:03:49.456Z,6212.00
2018-04-29T07:04:49.424Z,4684.00
2018-04-29T07:05:49.390Z,4348.00
2018-04-29T07:06:49.360Z,4352.00
2018-04-29T07:07:49.323Z,4480.00
2018-04-29T07:08:49.290Z,4460.00
2018-04-29T07:09:49.256Z,4236.00
2018-04-29T07:10:49.222Z,3928.00
2018-04-29T07:11:49.188Z,3616.00
2018-04-29T07:12:49.153Z,3316.00
2018-04-29T07:13:49.119Z,3112.00
2018-04-29T07:14:49.084Z,2976.00
2018-04-29T07:15:49.048Z,2912.00
2018-04-29T07:16:49.013Z,2936.00
2018-04-29T07:17:48.976Z,3012.00
2018-04-29T07:18:48.972Z,3088.00
2018-04-29T07:19:48.905Z,3212.00
2018-04-29T07:20:48.869Z,3460.00
2018-04-29T07:21:48.832Z,3820.00
2018-04-29T07:22:48.796Z,4176.00
2018-04-29T07:23:48.757Z,4580.00
2018-04-29T07:24:48.720Z,5296.00
2018-04-29T07:25:48.683Z,6100.00
2018-04-29T07:26:48.647Z,6384.00
2018-04-29T07:27:48.607Z,8664.00
2018-04-29T07:28:48.570Z,13356.00
2018-04-29T07:29:48.533Z,7316.00
2018-04-29T07:30:48.496Z,7048.00
2018-04-29T07:31:48.457Z,6880.00
2018-04-29T07:32:48.420Z,6604.00
2018-04-29T07:33:48.382Z,6552.00
2018-04-29T07:34:48.345Z,7332.00
2018-04-29T07:35:48.306Z,9860.00
2018-04-29T07:36:48.268Z,8604.00
2018-04-29T07:37:48.230Z,9372.00
2018-04-29T07:38:48.194Z,10836.00
2018-04-29T07:39:48.216Z,14004.00
2018-04-29T07:40:48.117Z,13020.00
2018-04-29T07:41:48.079Z,11552.00
2018-04-29T07:42:48.042Z,11580.00
2018-04-29T07:43:48.003Z,13484.00
2018-04-29T07:44:47.966Z,14008.00
2018-04-29T07:45:47.929Z,15584.00
2018-04-29T07:46:47.893Z,11720.00
2018-04-29T07:47:47.854Z,18336.00
2018-04-29T07:48:47.817Z,16192.00
2018-04-29T07:49:47.780Z,28064.00
2018-04-29T07:50:47.743Z,34720.00
2018-04-29T07:51:47.706Z,20064.00
2018-04-29T07:52:47.669Z,16352.00
2018-04-29T07:53:47.633Z,10600.00
2018-04-29T07:54:47.597Z,11028.00
2018-04-29T07:55:47.564Z,45760.00
2018-04-29T07:56:47.524Z,19712.00
2018-04-29T07:57:47.493Z,27200.00
2018-04-29T07:58:47.454Z,47040.00
2018-04-29T07:59:47.417Z,46304.00
2018-04-29T08:00:47.404Z,37088.00
2018-04-29T08:01:47.353Z,37152.00
2018-04-29T08:02:47.315Z,34720.00
2018-04-29T08:03:47.282Z,31168.00
2018-04-29T08:04:47.247Z,33184.00
2018-04-29T08:05:47.214Z,26368.00
2018-04-29T08:06:47.298Z,20352.00
2018-04-29T08:07:47.151Z,15648.00
2018-04-29T08:08:47.115Z,14124.00
2018-04-29T08:09:47.083Z,11920.00
2018-04-29T08:10:47.051Z,9676.00
2018-04-29T08:11:47.018Z,8828.00
2018-04-29T08:12:46.985Z,8452.00
2018-04-29T08:13:46.953Z,8056.00
2018-04-29T08:14:46.920Z,7976.00
2018-04-29T08:15:46.902Z,8108.00
2018-04-29T08:16:46.857Z,8408.00
2018-04-29T08:17:46.820Z,8512.00
2018-04-29T08:18:46.786Z,8648.00
2018-04-29T08:19:46.752Z,8924.00
2018-04-29T08:20:46.718Z,9184.00
2018-04-29T08:21:46.684Z,9524.00
2018-04-29T08:22:46.686Z,8752.00
2018-04-29T08:23:46.615Z,9468.00
2018-04-29T08:24:46.579Z,9080.00
2018-04-29T08:25:46.545Z,8876.00
2018-04-29T08:26:46.514Z,9452.00
2018-04-29T08:27:46.475Z,10204.00
2018-04-29T08:28:46.439Z,8100.00
2018-04-29T08:29:46.454Z,7056.00
2018-04-29T08:30:46.369Z,6316.00
2018-04-29T08:31:46.332Z,5636.00
2018-04-29T08:32:46.297Z,5032.00
2018-04-29T08:33:46.262Z,4536.00
2018-04-29T08:34:46.225Z,4128.00
2018-04-29T08:35:46.188Z,3852.00
2018-04-29T08:36:46.152Z,3612.00
2018-04-29T08:37:46.115Z,3524.00
2018-04-29T08:38:46.079Z,3700.00
2018-04-29T08:39:46.041Z,3868.00
2018-04-29T08:40:46.004Z,3964.00
2018-04-29T08:41:45.981Z,4168.00
2018-04-29T08:42:45.930Z,4864.00
2018-04-29T08:43:45.893Z,6932.00
2018-04-29T08:44:45.852Z,6356.00
2018-04-29T08:45:45.815Z,34560.00
2018-04-29T08:46:45.778Z,34176.00
2018-04-29T08:47:45.739Z,11116.00
2018-04-29T08:48:45.704Z,11564.00
2018-04-29T08:49:45.667Z,28608.00
2018-04-29T08:50:45.628Z,14968.00
2018-04-29T08:51:45.588Z,10404.00
2018-04-29T08:52:45.551Z,30016.00
2018-04-29T08:53:45.516Z,9912.00
2018-04-29T08:54:45.477Z,9684.00
2018-04-29T08:55:45.440Z,9740.00
2018-04-29T08:56:45.404Z,9984.00
2018-04-29T08:57:45.367Z,14548.00
2018-04-29T08:58:45.331Z,20000.00
2018-04-29T08:59:45.295Z,35680.00
2018-04-29T09:00:45.257Z,38688.00
2018-04-29T09:01:45.222Z,36896.00
2018-04-29T09:02:45.187Z,35904.00
2018-04-29T09:03:45.184Z,35456.00
2018-04-29T09:04:45.125Z,35456.00
2018-04-29T09:05:45.091Z,35392.00
2018-04-29T09:06:45.054Z,34720.00
2018-04-29T09:07:45.022Z,34496.00
2018-04-29T09:08:44.997Z,34144.00
2018-04-29T09:09:44.959Z,34432.00
2018-04-29T09:10:44.928Z,34848.00
2018-04-29T09:11:44.900Z,34496.00
2018-04-29T09:12:44.869Z,34144.00
2018-04-29T09:13:44.839Z,34048.00
2018-04-29T09:14:44.815Z,34016.00
2018-04-29T09:15:44.782Z,34304.00
2018-04-29T09:16:44.755Z,35200.00
2018-04-29T09:17:44.726Z,36288.00
2018-04-29T09:18:44.699Z,36448.00
2018-04-29T09:19:44.671Z,36768.00
2018-04-29T09:20:44.644Z,38816.00
2018-04-29T09:21:44.617Z,40704.00
2018-04-29T09:22:44.597Z,40640.00
2018-04-29T09:23:44.564Z,36928.00
2018-04-29T09:24:44.537Z,32704.00
2018-04-29T09:25:44.511Z,31328.00
2018-04-29T09:26:44.485Z,30432.00
2018-04-29T09:27:44.458Z,29120.00
2018-04-29T09:28:44.435Z,28000.00
2018-04-29T09:29:44.409Z,27264.00
2018-04-29T09:30:44.380Z,26688.00
2018-04-29T09:31:44.354Z,26304.00
2018-04-29T09:32:44.329Z,25856.00
2018-04-29T09:33:44.301Z,25472.00
2018-04-29T09:34:44.279Z,24960.00
2018-04-29T09:35:44.248Z,24480.00
2018-04-29T09:36:44.221Z,23872.00
2018-04-29T09:37:44.195Z,23232.00
2018-04-29T09:38:44.169Z,22880.00
2018-04-29T09:39:44.142Z,22304.00
2018-04-29T09:40:44.214Z,20992.00
2018-04-29T09:41:44.093Z,16896.00
2018-04-29T09:42:44.060Z,10220.00
2018-04-29T09:43:44.154Z,5584.00
2018-04-29T09:44:44.006Z,4396.00
2018-04-29T09:45:43.978Z,4296.00
2018-04-29T09:46:43.950Z,4260.00
2018-04-29T09:47:43.923Z,4220.00
2018-04-29T09:48:43.895Z,4212.00
2018-04-29T09:49:43.863Z,4200.00
2018-04-29T09:50:43.834Z,4216.00
2018-04-29T09:51:43.802Z,4204.00
2018-04-29T09:52:43.772Z,4196.00
2018-04-29T09:53:43.741Z,4176.00
2018-04-29T09:54:43.710Z,4152.00
2018-04-29T09:55:43.677Z,4152.00
2018-04-29T09:56:43.644Z,4144.00
2018-04-29T09:57:43.612Z,4124.00
2018-04-29T09:58:43.580Z,4096.00
2018-04-29T09:59:43.546Z,4064.00
2018-04-29T10:00:43.512Z,4036.00
2018-04-29T10:01:43.480Z,4008.00
2018-04-29T10:02:43.445Z,3996.00
2018-04-29T10:03:43.410Z,4004.00
2018-04-29T10:04:43.375Z,3992.00
2018-04-29T10:05:43.341Z,3984.00
2018-04-29T10:06:43.307Z,3968.00
2018-04-29T10:07:43.271Z,3924.00
2018-04-29T10:08:43.236Z,3888.00
2018-04-29T10:09:43.200Z,3852.00
2018-04-29T10:10:43.168Z,3816.00
2018-04-29T10:11:43.128Z,3792.00
2018-04-29T10:12:43.149Z,3768.00
2018-04-29T10:13:43.057Z,3748.00
2018-04-29T10:14:43.020Z,3732.00
2018-04-29T10:15:42.982Z,3728.00
2018-04-29T10:16:42.946Z,3712.00
2018-04-29T10:17:42.909Z,3692.00
2018-04-29T10:18:42.921Z,3676.00
2018-04-29T10:19:42.834Z,3644.00
2018-04-29T10:20:42.797Z,3624.00
2018-04-29T10:21:42.759Z,3600.00
2018-04-29T10:22:42.722Z,3580.00
2018-04-29T10:23:42.734Z,3564.00
2018-04-29T10:24:42.671Z,3552.00
2018-04-29T10:25:42.609Z,3532.00
2018-04-29T10:26:42.573Z,3512.00
2018-04-29T10:27:42.533Z,3500.00
2018-04-29T10:28:42.497Z,3496.00
2018-04-29T10:29:42.458Z,3480.00
2018-04-29T10:30:42.420Z,3472.00
2018-04-29T10:31:42.384Z,3460.00
2018-04-29T10:32:42.387Z,3444.00
2018-04-29T10:33:42.305Z,3428.00
2018-04-29T10:34:42.268Z,3420.00
2018-04-29T10:35:42.228Z,3416.00
2018-04-29T10:36:42.190Z,3400.00
2018-04-29T10:37:42.152Z,3388.00
2018-04-29T10:38:42.120Z,3368.00
2018-04-29T10:39:42.081Z,3348.00
2018-04-29T10:40:42.037Z,3328.00
2018-04-29T10:41:42.007Z,3312.00
2018-04-29T10:42:41.961Z,3300.00
2018-04-29T10:43:41.921Z,3292.00
2018-04-29T10:44:41.882Z,3272.00
2018-04-29T10:45:41.844Z,3256.00
2018-04-29T10:46:41.808Z,3252.00
2018-04-29T10:47:41.765Z,3252.00
2018-04-29T10:48:41.727Z,3244.00
2018-04-29T10:49:41.688Z,3236.00
2018-04-29T10:50:41.650Z,3232.00
2018-04-29T10:51:41.610Z,3212.00
2018-04-29T10:52:41.573Z,3196.00
2018-04-29T10:53:41.533Z,3184.00
2018-04-29T10:54:41.495Z,3160.00
2018-04-29T10:55:41.454Z,3152.00
2018-04-29T10:56:41.494Z,3124.00
2018-04-29T10:57:41.377Z,3120.00
2018-04-29T10:58:41.418Z,3116.00
2018-04-29T10:59:41.298Z,3100.00
2018-04-29T11:00:41.260Z,3084.00
2018-04-29T11:01:41.221Z,3064.00
2018-04-29T11:02:41.182Z,3048.00
2018-04-29T11:03:41.142Z,3036.00
2018-04-29T11:04:41.104Z,3020.00
2018-04-29T11:05:41.065Z,3004.00
2018-04-29T11:06:41.026Z,2976.00
2018-04-29T11:07:40.986Z,2956.00
2018-04-29T11:08:40.948Z,2944.00
2018-04-29T11:09:40.908Z,2932.00
2018-04-29T11:10:40.869Z,2928.00
2018-04-29T11:11:40.871Z,2924.00
2018-04-29T11:12:40.792Z,2924.00
2018-04-29T11:13:40.751Z,2920.00
2018-04-29T11:14:40.713Z,2912.00
2018-04-29T11:15:40.673Z,2908.00
2018-04-29T11:16:40.633Z,2908.00
2018-04-29T11:17:40.595Z,2896.00
2018-04-29T11:18:40.555Z,2892.00
2018-04-29T11:19:40.518Z,2868.00
2018-04-29T11:20:40.477Z,2860.00
2018-04-29T11:21:40.438Z,2848.00
2018-04-29T11:22:40.398Z,2840.00
2018-04-29T11:23:40.363Z,2840.00
2018-04-29T11:24:40.330Z,2828.00
2018-04-29T11:25:40.281Z,2812.00
2018-04-29T11:26:40.241Z,2804.00
2018-04-29T11:27:40.201Z,2796.00
2018-04-29T11:28:40.217Z,2784.00
2018-04-29T11:29:40.126Z,2772.00
2018-04-29T11:30:40.084Z,2764.00
2018-04-29T11:31:40.043Z,2760.00
2018-04-29T11:32:40.004Z,2740.00
2018-04-29T11:33:39.964Z,2732.00
2018-04-29T11:34:39.925Z,2724.00
2018-04-29T11:35:39.885Z,2712.00
2018-04-29T11:36:39.846Z,2700.00
2018-04-29T11:37:39.807Z,2692.00
2018-04-29T11:38:39.768Z,2676.00
2018-04-29T11:39:39.728Z,2668.00
2018-04-29T11:40:39.710Z,2664.00
2018-04-29T11:41:39.650Z,2660.00
2018-04-29T11:42:39.612Z,2656.00
2018-04-29T11:43:39.570Z,2644.00
2018-04-29T11:44:39.534Z,2652.00
2018-04-29T11:45:39.493Z,2644.00
2018-04-29T11:46:39.465Z,2648.00
2018-04-29T11:47:39.420Z,2644.00
2018-04-29T11:48:39.375Z,2636.00
2018-04-29T11:49:39.337Z,2632.00
2018-04-29T11:50:39.296Z,2632.00
2018-04-29T11:51:39.256Z,2628.00
2018-04-29T11:52:39.217Z,2632.00
2018-04-29T11:53:39.178Z,2628.00
2018-04-29T11:54:39.139Z,2624.00
2018-04-29T11:55:39.099Z,2620.00
2018-04-29T11:56:39.060Z,2612.00
2018-04-29T11:57:39.020Z,2612.00
2018-04-29T11:58:38.982Z,2600.00
2018-04-29T11:59:38.942Z,2592.00
2018-04-29T12:00:38.907Z,2588.00
2018-04-29T12:01:38.863Z,2584.00
2018-04-29T12:02:38.906Z,2568.00
2018-04-29T12:03:38.784Z,2564.00
2018-04-29T12:04:38.744Z,2556.00
2018-04-29T12:05:38.706Z,2556.00
2018-04-29T12:06:38.666Z,2548.00
2018-04-29T12:07:38.626Z,2540.00
2018-04-29T12:08:38.592Z,2540.00
2018-04-29T12:09:38.547Z,2536.00
2018-04-29T12:10:38.508Z,2528.00
2018-04-29T12:11:38.469Z,2520.00
2018-04-29T12:12:38.431Z,2516.00
2018-04-29T12:13:38.390Z,2508.00
2018-04-29T12:14:38.354Z,2504.00
2018-04-29T12:15:38.310Z,2496.00
2018-04-29T12:16:38.277Z,2492.00
2018-04-29T12:17:38.232Z,2484.00
2018-04-29T12:18:38.193Z,2464.00
2018-04-29T12:19:38.154Z,2452.00
2018-04-29T12:20:38.114Z,2452.00